createdAt,value
2018-07-08T00:02:06.194Z,18.40
2018-07-08T00:07:09.698Z,18.10
2018-07-08T00:12:13.291Z,18.10
2018-07-08T00:17:16.846Z,18.00
2018-07-08T00:22:20.493Z,17.90
2018-07-08T00:27:24.120Z,17.80
2018-07-08T00:32:28.667Z,17.70
2018-07-08T00:37:32.208Z,17.60
2018-07-08T00:42:36.276Z,17.60
2018-07-08T00:47:43.434Z,17.60
2018-07-08T00:52:48.858Z,17.50
2018-07-08T00:57:52.602Z,17.30
2018-07-08T01:02:57.308Z,17.00
2018-07-08T01:08:01.398Z,16.80
2018-07-08T01:13:04.940Z,17.00
2018-07-08T01:18:08.380Z,17.00
2018-07-08T01:23:13.094Z,16.90
2018-07-08T01:33:58.099Z,16.70
2018-07-08T01:39:04.005Z,16.40
2018-07-08T01:44:07.639Z,16.20
2018-07-08T01:54:14.671Z,16.00
2018-07-08T01:59:19.260Z,15.90
2018-07-08T02:04:22.928Z,16.00
2018-07-08T02:09:26.710Z,16.00
2018-07-08T02:14:31.346Z,15.90
2018-07-08T02:19:34.914Z,15.90
2018-07-08T02:24:38.577Z,15.90
2018-07-08T02:29:42.230Z,15.90
2018-07-08T02:34:45.685Z,15.80
2018-07-08T02:39:49.236Z,15.70
2018-07-08T02:44:52.701Z,15.60
2018-07-08T02:49:56.421Z,15.70
2018-07-08T02:54:59.827Z,15.50
2018-07-08T03:00:03.281Z,15.50
2018-07-08T03:05:06.895Z,15.50
2018-07-08T03:10:11.320Z,15.50
2018-07-08T03:15:15.463Z,15.60
2018-07-08T03:20:18.875Z,15.50
2018-07-08T03:25:22.343Z,15.60
2018-07-08T03:30:25.784Z,15.60
2018-07-08T03:35:29.448Z,15.60
2018-07-08T03:45:56.418Z,15.50
2018-07-08T03:50:59.845Z,15.40
2018-07-08T03:56:03.413Z,15.50
2018-07-08T04:01:07.115Z,15.50
2018-07-08T04:06:18.964Z,15.50
2018-07-08T04:11:29.153Z,15.60
2018-07-08T04:16:32.817Z,15.60
2018-07-08T04:21:36.752Z,15.80
2018-07-08T04:26:40.291Z,15.90
2018-07-08T04:31:43.770Z,16.00
2018-07-08T04:36:50.404Z,16.20
2018-07-08T04:41:54.796Z,16.30
2018-07-08T04:46:58.356Z,16.50
2018-07-08T04:52:01.726Z,16.60
2018-07-08T04:57:05.658Z,16.80
2018-07-08T05:02:09.104Z,17.00
2018-07-08T05:07:12.471Z,17.20
2018-07-08T05:12:15.925Z,17.30
2018-07-08T05:17:19.542Z,17.50
2018-07-08T05:22:24.035Z,17.70
2018-07-08T05:27:27.603Z,17.80
2018-07-08T05:32:31.128Z,17.80
2018-07-08T05:37:34.626Z,18.00
2018-07-08T05:42:40.317Z,18.00
2018-07-08T05:47:43.964Z,18.30
2018-07-08T05:52:47.487Z,18.50
2018-07-08T05:57:51.919Z,18.60
2018-07-08T06:02:55.428Z,18.70
2018-07-08T06:07:59.846Z,18.80
2018-07-08T06:13:03.262Z,19.00
2018-07-08T06:18:07.734Z,19.20
2018-07-08T06:23:11.352Z,19.50
2018-07-08T06:28:14.874Z,19.50
2018-07-08T06:33:18.398Z,19.80
2018-07-08T06:38:22.039Z,19.90
2018-07-08T06:43:27.457Z,20.00
2018-07-08T06:48:36.476Z,20.20
2018-07-08T06:53:42.344Z,20.40
2018-07-08T06:58:48.257Z,20.70
2018-07-08T07:09:33.749Z,21.10
2018-07-08T07:14:37.424Z,21.00
2018-07-08T07:19:41.004Z,20.90
2018-07-08T07:24:45.311Z,21.30
2018-07-08T07:29:49.339Z,21.50
2018-07-08T07:34:52.927Z,21.90
2018-07-08T07:39:56.561Z,22.20
2018-07-08T07:45:01.305Z,22.40
2018-07-08T07:50:04.887Z,22.30
2018-07-08T07:55:08.389Z,22.40
2018-07-08T08:00:11.886Z,22.60
2018-07-08T08:05:15.225Z,22.80
2018-07-08T08:10:19.812Z,23.30
2018-07-08T08:15:33.879Z,23.50
2018-07-08T08:20:37.389Z,24.00
2018-07-08T08:25:51.705Z,24.30
2018-07-08T08:30:55.382Z,24.40
2018-07-08T08:36:00.037Z,24.40
2018-07-08T08:41:04.248Z,24.70
2018-07-08T08:46:07.990Z,24.50
2018-07-08T08:51:11.650Z,24.90
2018-07-08T08:56:15.110Z,25.10
2018-07-08T09:01:18.598Z,25.10
2018-07-08T09:06:25.781Z,25.40
2018-07-08T09:11:30.402Z,25.70
2018-07-08T09:16:33.856Z,26.20
2018-07-08T09:21:41.385Z,26.60
2018-07-08T09:26:51.421Z,26.60
2018-07-08T09:31:55.932Z,26.80
2018-07-08T09:42:05.000Z,26.90
2018-07-08T09:47:08.625Z,26.70
2018-07-08T09:52:12.210Z,27.20
2018-07-08T09:57:15.801Z,27.00
2018-07-08T10:02:19.412Z,27.00
2018-07-08T10:07:23.007Z,27.30
2018-07-08T10:12:26.451Z,26.80
2018-07-08T10:17:30.053Z,26.70
2018-07-08T10:22:33.659Z,27.10
2018-07-08T10:27:57.747Z,27.40
2018-07-08T10:33:01.390Z,27.90
2018-07-08T10:38:06.244Z,27.90
2018-07-08T10:43:12.608Z,27.80
2018-07-08T10:48:17.290Z,28.30
2018-07-08T10:53:21.766Z,28.40
2018-07-08T10:58:25.418Z,28.00
2018-07-08T11:03:29.078Z,28.70
2018-07-08T11:08:38.483Z,29.20
2018-07-08T11:13:44.726Z,29.40
2018-07-08T11:18:54.850Z,29.90
2018-07-08T11:24:04.004Z,30.00
2018-07-08T11:29:19.088Z,30.20
2018-07-08T11:34:26.275Z,30.20
2018-07-08T11:39:29.829Z,30.10
2018-07-08T11:50:11.763Z,30.70
2018-07-08T11:55:15.279Z,30.80
2018-07-08T12:00:18.905Z,31.30
2018-07-08T12:05:22.715Z,31.40
2018-07-08T12:10:27.965Z,31.30
2018-07-08T12:15:31.508Z,31.50
2018-07-08T12:20:35.619Z,31.60
2018-07-08T12:25:39.107Z,31.60
2018-07-08T12:30:45.815Z,31.20
2018-07-08T12:35:49.272Z,31.40
2018-07-08T12:40:55.188Z,31.30
2018-07-08T12:45:59.619Z,31.30
2018-07-08T12:51:03.030Z,31.50
2018-07-08T12:56:06.990Z,31.20
2018-07-08T13:01:10.863Z,31.20
2018-07-08T13:06:17.591Z,31.80
2018-07-08T13:16:27.210Z,32.30
2018-07-08T13:21:33.242Z,32.30
2018-07-08T13:26:41.965Z,32.00
2018-07-08T13:31:47.284Z,31.20
2018-07-08T13:36:52.191Z,31.50
2018-07-08T13:41:58.404Z,31.80
2018-07-08T13:47:16.861Z,31.30
2018-07-08T13:52:20.435Z,31.20
2018-07-08T13:57:23.937Z,31.60
2018-07-08T14:02:28.051Z,31.60
2018-07-08T14:09:00.739Z,31.30
2018-07-08T14:14:04.209Z,31.30
2018-07-08T14:19:07.753Z,31.90
2018-07-08T14:24:25.464Z,31.80
2018-07-08T14:35:21.686Z,31.70
2018-07-08T14:40:26.387Z,31.60
2018-07-08T14:45:34.255Z,32.00
2018-07-08T14:50:46.225Z,32.50
2018-07-08T14:55:52.654Z,32.40
2018-07-08T15:00:59.299Z,32.00
2018-07-08T15:06:02.866Z,31.60
2018-07-08T15:11:06.607Z,31.90
2018-07-08T15:16:10.284Z,31.60
2018-07-08T15:21:14.868Z,32.40
2018-07-08T15:26:18.494Z,32.30
2018-07-08T15:31:22.130Z,32.20
2018-07-08T15:36:26.385Z,32.20
2018-07-08T15:41:31.386Z,32.20
2018-07-08T15:46:34.931Z,32.30
2018-07-08T15:51:38.641Z,32.00
2018-07-08T15:56:42.213Z,32.10
2018-07-08T16:01:46.361Z,32.10
2018-07-08T16:06:49.915Z,32.30
2018-07-08T16:11:53.545Z,31.80
2018-07-08T16:17:04.652Z,31.80
2018-07-08T16:22:09.035Z,32.20
2018-07-08T16:27:15.538Z,32.50
2018-07-08T16:32:20.303Z,33.00
2018-07-08T16:37:34.224Z,33.10
2018-07-08T16:42:40.675Z,33.40
2018-07-08T16:47:45.945Z,33.20
2018-07-08T16:52:57.310Z,33.20
2018-07-08T16:58:05.737Z,33.20
2018-07-08T17:03:10.567Z,33.00
2018-07-08T17:08:14.041Z,33.20
2018-07-08T17:13:17.771Z,33.90
2018-07-08T17:18:21.247Z,34.50
2018-07-08T17:23:28.711Z,34.30
2018-07-08T17:28:50.455Z,34.90
2018-07-08T17:33:59.963Z,35.10
2018-07-08T17:39:06.717Z,35.60
2018-07-08T17:44:12.091Z,36.00
2018-07-08T17:49:19.720Z,36.40
2018-07-08T17:54:25.432Z,37.30
2018-07-08T17:59:29.173Z,37.50
2018-07-08T18:04:33.101Z,38.00
2018-07-08T18:09:38.332Z,38.60
2018-07-08T18:14:43.529Z,38.80
2018-07-08T18:30:50.716Z,35.60
2018-07-08T18:35:55.792Z,33.70
2018-07-08T18:41:03.165Z,32.20
2018-07-08T18:46:08.214Z,30.60
2018-07-08T18:51:15.925Z,29.60
2018-07-08T18:56:19.604Z,28.90
2018-07-08T19:01:23.056Z,28.20
2018-07-08T19:06:26.543Z,27.70
2018-07-08T19:11:30.023Z,27.30
2018-07-08T19:16:33.497Z,26.80
2018-07-08T19:21:36.977Z,26.50
2018-07-08T19:26:40.938Z,26.20
2018-07-08T19:31:45.126Z,25.90
2018-07-08T19:36:48.663Z,25.60
2018-07-08T19:41:52.264Z,25.30
2018-07-08T19:46:58.430Z,25.00
2018-07-08T19:52:02.003Z,24.70
2018-07-08T19:57:07.512Z,24.60
2018-07-08T20:02:11.017Z,24.30
2018-07-08T20:07:14.786Z,24.20
2018-07-08T20:12:19.173Z,24.00
2018-07-08T20:17:22.791Z,23.90
2018-07-08T20:22:26.526Z,23.70
2018-07-08T20:27:30.125Z,23.50
2018-07-08T20:32:35.593Z,23.30
2018-07-08T20:37:39.117Z,23.20
2018-07-08T20:42:46.569Z,22.90
2018-07-08T20:47:53.074Z,22.80
2018-07-08T20:52:56.623Z,22.70
2018-07-08T20:58:00.106Z,22.50
2018-07-08T21:03:05.654Z,22.30
2018-07-08T21:08:10.062Z,22.30
2018-07-08T21:13:13.743Z,22.20
2018-07-08T21:18:18.232Z,22.20
2018-07-08T21:23:22.899Z,21.90
2018-07-08T21:28:26.498Z,21.90
2018-07-08T21:33:31.063Z,21.80
2018-07-08T21:38:36.421Z,21.80
2018-07-08T21:43:40.906Z,21.60
2018-07-08T21:48:44.556Z,21.60
2018-07-08T21:53:48.007Z,21.50
2018-07-08T21:58:54.473Z,21.40
2018-07-08T22:03:57.988Z,21.40
2018-07-08T22:09:05.092Z,21.10
2018-07-08T22:14:10.830Z,21.00
2018-07-08T22:19:17.381Z,21.00
2018-07-08T22:24:23.123Z,20.80
2018-07-08T22:29:32.201Z,20.70
2018-07-08T22:34:40.600Z,20.70
2018-07-08T22:39:44.829Z,20.60
2018-07-08T22:44:50.170Z,20.50
2018-07-08T22:49:55.618Z,20.40
2018-07-08T22:55:00.947Z,20.40
2018-07-08T23:00:17.238Z,20.30
2018-07-08T23:05:20.735Z,20.30
2018-07-08T23:11:32.337Z,20.20
2018-07-08T23:16:38.001Z,20.00
2018-07-08T23:21:42.518Z,20.00
2018-07-08T23:26:46.143Z,19.90
2018-07-08T23:31:56.664Z,19.90
2018-07-08T23:37:00.219Z,19.80
2018-07-08T23:42:03.747Z,19.70
2018-07-08T23:47:07.713Z,19.60
2018-07-08T23:52:11.204Z,19.60
2018-07-08T23:57:15.760Z,19.50
